createdAt,value
2023-10-29T00:00:30.737Z,94.93
2023-10-29T00:01:30.766Z,94.73
2023-10-29T00:02:30.896Z,94.87
2023-10-29T00:03:30.879Z,95.49
2023-10-29T00:04:30.879Z,95.28
2023-10-29T00:05:30.859Z,95.39
2023-10-29T00:06:30.820Z,95.59
2023-10-29T00:07:30.852Z,95.53
2023-10-29T00:08:30.907Z,95.74
2023-10-29T00:09:30.902Z,95.53
2023-10-29T00:10:30.895Z,95.64
2023-10-29T00:11:30.939Z,95.53
2023-10-29T00:12:30.932Z,95.57
2023-10-29T00:13:30.950Z,96.40
2023-10-29T00:14:32.219Z,96.60
2023-10-29T00:15:30.998Z,96.50
2023-10-29T00:16:30.988Z,96.60
2023-10-29T00:17:31.073Z,96.91
2023-10-29T00:18:31.061Z,97.02
2023-10-29T00:19:31.050Z,97.42
2023-10-29T00:20:31.137Z,97.27
2023-10-29T00:21:31.053Z,97.78
2023-10-29T00:22:31.061Z,97.99
2023-10-29T00:23:31.165Z,98.19
2023-10-29T00:24:31.100Z,98.50
2023-10-29T00:25:31.120Z,99.01
2023-10-29T00:26:31.182Z,99.01
2023-10-29T00:27:31.180Z,99.01
2023-10-29T00:28:31.173Z,98.60
2023-10-29T00:29:31.235Z,98.60
2023-10-29T00:30:31.212Z,98.70
2023-10-29T00:31:31.261Z,99.01
2023-10-29T00:32:31.312Z,99.01
2023-10-29T00:33:31.279Z,99.21
2023-10-29T00:34:31.280Z,99.01
2023-10-29T00:35:31.390Z,99.11
2023-10-29T00:36:31.305Z,99.63
2023-10-29T00:37:31.352Z,99.21
2023-10-29T00:38:31.373Z,99.32
2023-10-29T00:39:31.371Z,99.37
2023-10-29T00:40:31.386Z,99.52
2023-10-29T00:41:31.450Z,99.57
2023-10-29T00:42:31.440Z,99.47
2023-10-29T00:43:31.446Z,99.37
2023-10-29T00:44:31.481Z,99.26
2023-10-29T00:45:31.602Z,99.05
2023-10-29T00:46:31.500Z,98.96
2023-10-29T00:47:31.545Z,98.96
2023-10-29T00:48:31.520Z,99.05
2023-10-29T00:49:31.531Z,99.26
2023-10-29T00:50:31.591Z,99.26
2023-10-29T00:51:31.586Z,99.37
2023-10-29T00:52:31.569Z,99.67
2023-10-29T00:53:31.625Z,99.88
2023-10-29T00:54:31.640Z,99.88
2023-10-29T00:55:31.656Z,99.83
2023-10-29T00:56:31.723Z,99.63
2023-10-29T00:57:31.672Z,99.21
2023-10-29T00:58:31.688Z,99.21
2023-10-29T00:59:31.754Z,98.91
2023-10-29T01:00:31.735Z,98.91
2023-10-29T01:01:31.768Z,98.91
2023-10-29T01:02:31.847Z,99.01
2023-10-29T01:03:31.977Z,99.01
2023-10-29T01:04:31.779Z,99.01
2023-10-29T01:05:31.940Z,99.01
2023-10-29T01:06:31.869Z,98.91
2023-10-29T01:07:31.843Z,98.80
2023-10-29T01:08:31.912Z,98.60
2023-10-29T01:09:31.912Z,98.55
2023-10-29T01:10:31.901Z,98.04
2023-10-29T01:11:31.924Z,97.94
2023-10-29T01:12:31.925Z,97.73
2023-10-29T01:13:31.943Z,97.53
2023-10-29T01:14:31.992Z,97.42
2023-10-29T01:15:32.059Z,97.22
2023-10-29T01:16:31.985Z,96.91
2023-10-29T01:17:32.057Z,96.81
2023-10-29T01:18:32.072Z,97.22
2023-10-29T01:19:32.069Z,97.22
2023-10-29T01:20:32.096Z,97.32
2023-10-29T01:21:32.098Z,97.42
2023-10-29T01:22:32.105Z,97.02
2023-10-29T01:23:32.162Z,96.81
2023-10-29T01:24:32.174Z,96.50
2023-10-29T01:25:32.169Z,96.81
2023-10-29T01:26:32.227Z,97.02
2023-10-29T01:27:32.214Z,96.60
2023-10-29T01:28:32.288Z,96.81
2023-10-29T01:29:32.254Z,97.32
2023-10-29T01:30:32.261Z,97.42
2023-10-29T01:31:32.336Z,97.42
2023-10-29T01:32:32.368Z,97.57
2023-10-29T01:33:32.363Z,97.47
2023-10-29T01:34:32.342Z,97.67
2023-10-29T01:35:32.400Z,97.88
2023-10-29T01:36:32.406Z,97.57
2023-10-29T01:37:32.401Z,97.99
2023-10-29T01:38:32.452Z,97.67
2023-10-29T01:39:32.438Z,97.57
2023-10-29T01:40:32.436Z,97.67
2023-10-29T01:41:32.475Z,97.78
2023-10-29T01:42:32.481Z,98.08
2023-10-29T01:43:32.492Z,97.92
2023-10-29T01:44:32.530Z,97.82
2023-10-29T01:45:32.552Z,97.92
2023-10-29T01:46:32.541Z,97.62
2023-10-29T01:47:32.638Z,97.72
2023-10-29T01:48:32.648Z,98.24
2023-10-29T01:49:32.584Z,98.44
2023-10-29T01:50:32.635Z,98.65
2023-10-29T01:51:32.635Z,99.05
2023-10-29T01:52:32.640Z,98.96
2023-10-29T01:53:32.683Z,99.00
2023-10-29T01:54:32.663Z,99.10
2023-10-29T01:55:32.693Z,99.31
2023-10-29T01:56:32.752Z,99.21
2023-10-29T01:57:32.725Z,99.21
2023-10-29T01:58:32.748Z,99.41
2023-10-29T01:59:32.826Z,99.62
2023-10-29T02:00:32.778Z,99.51
2023-10-29T02:01:32.908Z,99.62
2023-10-29T02:02:32.853Z,99.72
2023-10-29T02:03:32.923Z,99.99
2023-10-29T02:04:32.850Z,99.99
2023-10-29T02:05:32.947Z,99.82
2023-10-29T02:06:32.908Z,99.93
2023-10-29T02:07:32.912Z,99.99
2023-10-29T02:08:33.043Z,99.99
2023-10-29T02:09:32.938Z,99.99
2023-10-29T02:10:32.976Z,99.93
2023-10-29T02:11:32.993Z,99.99
2023-10-29T02:12:32.994Z,99.99
2023-10-29T02:13:33.022Z,99.99
2023-10-29T02:14:33.104Z,99.99
2023-10-29T02:15:33.081Z,99.99
2023-10-29T02:16:33.066Z,99.99
2023-10-29T02:17:33.149Z,99.99
2023-10-29T02:18:33.117Z,99.99
2023-10-29T02:19:33.137Z,99.99
2023-10-29T02:20:33.175Z,99.99
2023-10-29T02:21:33.162Z,99.99
2023-10-29T02:22:33.190Z,99.99
2023-10-29T02:23:33.217Z,99.93
2023-10-29T02:24:33.215Z,99.99
2023-10-29T02:25:33.232Z,99.99
2023-10-29T02:26:33.281Z,99.99
2023-10-29T02:27:33.267Z,99.99
2023-10-29T02:28:33.280Z,99.99
2023-10-29T02:29:33.368Z,99.77
2023-10-29T02:30:33.317Z,99.77
2023-10-29T02:31:33.425Z,99.99
2023-10-29T02:32:33.402Z,99.99
2023-10-29T02:33:33.482Z,99.99
2023-10-29T02:34:33.403Z,99.99
2023-10-29T02:35:33.435Z,99.99
2023-10-29T02:36:33.416Z,99.99
2023-10-29T02:37:33.445Z,99.99
2023-10-29T02:38:33.495Z,99.99
2023-10-29T02:39:33.487Z,99.99
2023-10-29T02:40:33.487Z,99.99
2023-10-29T02:41:33.536Z,99.99
2023-10-29T02:42:33.519Z,99.99
2023-10-29T02:43:33.560Z,99.99
2023-10-29T02:44:33.586Z,99.99
2023-10-29T02:45:33.581Z,99.99
2023-10-29T02:46:33.582Z,99.99
2023-10-29T02:47:33.708Z,99.99
2023-10-29T02:48:33.749Z,99.99
2023-10-29T02:49:33.642Z,99.99
2023-10-29T02:50:33.720Z,99.99
2023-10-29T02:51:33.683Z,99.99
2023-10-29T02:52:33.722Z,99.99
2023-10-29T02:53:33.734Z,99.99
2023-10-29T02:54:33.743Z,99.99
2023-10-29T02:55:33.749Z,99.99
2023-10-29T02:56:33.766Z,99.99
2023-10-29T02:57:33.799Z,99.99
2023-10-29T02:58:33.795Z,99.99
2023-10-29T02:59:33.831Z,99.99
2023-10-29T03:00:33.827Z,99.99
2023-10-29T03:01:33.954Z,99.99
2023-10-29T03:02:34.010Z,99.99
2023-10-29T03:03:33.991Z,99.99
2023-10-29T03:04:33.932Z,99.99
2023-10-29T03:05:43.042Z,99.99
2023-10-29T03:06:33.955Z,99.99
2023-10-29T03:07:33.947Z,99.99
2023-10-29T03:08:33.996Z,99.99
2023-10-29T03:09:33.978Z,99.99
2023-10-29T03:10:34.020Z,99.99
2023-10-29T03:11:34.050Z,99.99
2023-10-29T03:12:34.015Z,99.99
2023-10-29T03:13:34.035Z,99.99
2023-10-29T03:14:34.086Z,99.99
2023-10-29T03:15:34.091Z,99.99
2023-10-29T03:16:34.076Z,99.99
2023-10-29T03:17:34.183Z,99.99
2023-10-29T03:18:34.170Z,99.99
2023-10-29T03:19:34.127Z,99.99
2023-10-29T03:20:34.187Z,99.99
2023-10-29T03:21:34.163Z,99.99
2023-10-29T03:22:34.273Z,99.99
2023-10-29T03:23:34.219Z,99.99
2023-10-29T03:24:34.229Z,99.99
2023-10-29T03:25:34.241Z,99.99
2023-10-29T03:26:34.272Z,99.99
2023-10-29T03:27:34.262Z,99.99
2023-10-29T03:28:34.272Z,99.99
2023-10-29T03:29:34.343Z,99.99
2023-10-29T03:30:34.312Z,99.99
2023-10-29T03:31:34.372Z,99.99
2023-10-29T03:32:34.451Z,99.99
2023-10-29T03:33:34.427Z,99.99
2023-10-29T03:34:34.397Z,99.99
2023-10-29T03:35:34.416Z,99.99
2023-10-29T03:36:34.421Z,99.99
2023-10-29T03:37:34.436Z,99.99
2023-10-29T03:38:34.464Z,99.99
2023-10-29T03:39:34.488Z,99.99
2023-10-29T03:40:34.478Z,99.99
2023-10-29T03:41:34.521Z,99.99
2023-10-29T03:42:34.505Z,99.99
2023-10-29T03:43:34.552Z,99.99
2023-10-29T03:44:34.561Z,99.99
2023-10-29T03:45:34.618Z,99.99
2023-10-29T03:46:34.579Z,99.99
2023-10-29T03:47:34.721Z,99.99
2023-10-29T03:48:34.714Z,99.99
2023-10-29T03:49:34.617Z,99.99
2023-10-29T03:50:34.633Z,99.99
2023-10-29T03:51:34.645Z,99.99
2023-10-29T03:52:34.689Z,99.99
2023-10-29T03:53:34.695Z,99.99
2023-10-29T03:54:34.711Z,99.99
2023-10-29T03:55:34.711Z,99.99
2023-10-29T03:56:34.757Z,99.99
2023-10-29T03:57:34.764Z,99.99
2023-10-29T03:58:34.761Z,99.99
2023-10-29T03:59:34.811Z,99.99
2023-10-29T04:00:34.799Z,99.99
2023-10-29T04:01:34.846Z,99.99
2023-10-29T04:02:34.940Z,99.99
2023-10-29T04:03:34.948Z,99.99
2023-10-29T04:04:34.877Z,99.99
2023-10-29T04:05:34.976Z,99.99
2023-10-29T04:06:34.945Z,99.99
2023-10-29T04:07:34.947Z,99.99
2023-10-29T04:08:34.983Z,99.99
2023-10-29T04:09:34.974Z,99.99
2023-10-29T04:10:34.984Z,99.99
2023-10-29T04:11:35.112Z,99.99
2023-10-29T04:12:35.022Z,99.99
2023-10-29T04:13:35.036Z,99.99
2023-10-29T04:14:35.074Z,99.99
2023-10-29T04:15:35.067Z,99.99
2023-10-29T04:16:35.194Z,99.99
2023-10-29T04:17:35.191Z,99.99
2023-10-29T04:18:35.346Z,99.99
2023-10-29T04:19:35.138Z,99.99
2023-10-29T04:20:35.208Z,99.99
2023-10-29T04:21:35.173Z,99.99
2023-10-29T04:22:35.197Z,99.99
2023-10-29T04:23:35.222Z,99.99
2023-10-29T04:24:35.220Z,99.99
2023-10-29T04:25:35.253Z,99.99
2023-10-29T04:26:35.306Z,99.99
2023-10-29T04:27:35.270Z,99.99
2023-10-29T04:28:35.292Z,99.99
2023-10-29T04:29:35.321Z,99.99
2023-10-29T04:30:35.392Z,99.99
2023-10-29T04:31:35.338Z,99.99
2023-10-29T04:32:35.428Z,99.99
2023-10-29T04:33:35.446Z,99.99
2023-10-29T04:34:35.423Z,99.99
2023-10-29T04:35:35.459Z,99.99
2023-10-29T04:36:35.430Z,99.99
2023-10-29T04:37:35.440Z,99.99
2023-10-29T04:38:35.495Z,99.99
2023-10-29T04:39:35.492Z,99.99
2023-10-29T04:40:35.495Z,99.99
2023-10-29T04:41:35.570Z,99.99
2023-10-29T04:42:35.530Z,99.99
2023-10-29T04:43:35.543Z,99.99
2023-10-29T04:44:35.595Z,99.99
2023-10-29T04:45:35.568Z,99.99
2023-10-29T04:46:35.591Z,99.99
2023-10-29T04:47:35.641Z,99.99
2023-10-29T04:48:35.715Z,99.99
2023-10-29T04:49:35.665Z,99.99
2023-10-29T04:50:35.690Z,99.99
2023-10-29T04:51:35.674Z,99.99
2023-10-29T04:52:35.704Z,99.99
2023-10-29T04:53:36.118Z,99.99
2023-10-29T04:54:35.737Z,99.99
2023-10-29T04:55:35.755Z,99.99
2023-10-29T04:56:35.805Z,99.99
2023-10-29T04:57:35.789Z,99.99
2023-10-29T04:58:35.827Z,99.99
2023-10-29T04:59:35.861Z,99.99
2023-10-29T05:00:35.834Z,99.99
2023-10-29T05:01:35.910Z,99.99
2023-10-29T05:02:35.978Z,99.99
2023-10-29T05:03:36.010Z,99.99
2023-10-29T05:04:35.912Z,99.99
2023-10-29T05:05:35.936Z,99.99
2023-10-29T05:06:35.935Z,99.99
2023-10-29T05:07:35.965Z,99.99
2023-10-29T05:08:35.993Z,99.99
2023-10-29T05:09:35.978Z,99.99
2023-10-29T05:10:36.003Z,99.99
2023-10-29T05:11:36.066Z,99.99
2023-10-29T05:12:36.058Z,99.99
2023-10-29T05:13:36.047Z,99.99
2023-10-29T05:14:36.076Z,99.99
2023-10-29T05:15:36.069Z,99.99
2023-10-29T05:16:36.158Z,99.99
2023-10-29T05:17:36.176Z,99.99
2023-10-29T05:18:36.167Z,99.99
2023-10-29T05:19:36.138Z,99.99
2023-10-29T05:20:36.184Z,99.99
2023-10-29T05:21:36.215Z,99.99
2023-10-29T05:22:36.212Z,99.99
2023-10-29T05:23:36.309Z,99.99
2023-10-29T05:24:36.220Z,99.99
2023-10-29T05:25:36.231Z,99.99
2023-10-29T05:26:36.323Z,99.99
2023-10-29T05:27:36.266Z,99.99
2023-10-29T05:28:36.276Z,99.99
2023-10-29T05:29:36.303Z,99.99
2023-10-29T05:30:36.384Z,99.99
2023-10-29T05:31:36.358Z,99.99
2023-10-29T05:32:36.406Z,99.99
2023-10-29T05:33:36.398Z,99.99
2023-10-29T05:34:36.385Z,99.99
2023-10-29T05:35:36.455Z,99.99
2023-10-29T05:36:36.428Z,99.99
2023-10-29T05:37:36.430Z,99.99
2023-10-29T05:38:36.500Z,99.99
2023-10-29T05:39:36.465Z,99.99
2023-10-29T05:40:36.485Z,99.99
2023-10-29T05:41:36.530Z,99.99
2023-10-29T05:42:36.515Z,99.99
2023-10-29T05:43:36.528Z,99.99
2023-10-29T05:44:36.603Z,99.99
2023-10-29T05:45:36.565Z,99.99
2023-10-29T05:46:36.619Z,99.99
2023-10-29T05:47:36.630Z,99.99
2023-10-29T05:48:36.650Z,99.99
2023-10-29T05:49:36.659Z,99.99
2023-10-29T05:50:36.668Z,99.99
2023-10-29T05:51:36.660Z,99.99
2023-10-29T05:52:36.682Z,99.99
2023-10-29T05:53:36.703Z,99.99
2023-10-29T05:54:36.742Z,99.99
2023-10-29T05:55:36.771Z,99.99
2023-10-29T05:56:36.799Z,99.99
2023-10-29T05:57:36.762Z,99.99
2023-10-29T05:58:36.812Z,99.99
2023-10-29T05:59:36.854Z,99.99
2023-10-29T06:00:36.859Z,99.99
2023-10-29T06:01:36.840Z,99.99
2023-10-29T06:02:36.917Z,99.99
2023-10-29T06:03:37.067Z,99.99
2023-10-29T06:04:36.969Z,99.99
2023-10-29T06:05:36.965Z,99.99
2023-10-29T06:06:36.934Z,99.99
2023-10-29T06:07:36.951Z,99.99
2023-10-29T06:08:37.046Z,99.99
2023-10-29T06:09:37.010Z,99.99
2023-10-29T06:10:37.007Z,99.99
2023-10-29T06:11:37.080Z,99.99
2023-10-29T06:12:37.040Z,99.99
2023-10-29T06:13:37.076Z,99.99
2023-10-29T06:14:37.113Z,99.99
2023-10-29T06:15:37.094Z,99.99
2023-10-29T06:16:37.151Z,99.99
2023-10-29T06:17:37.292Z,99.99
2023-10-29T06:18:37.251Z,99.99
2023-10-29T06:19:37.180Z,99.99
2023-10-29T06:20:37.218Z,99.99
2023-10-29T06:21:37.209Z,99.99
2023-10-29T06:22:37.221Z,99.99
2023-10-29T06:23:38.564Z,99.99
2023-10-29T06:24:37.262Z,99.99
2023-10-29T06:25:37.263Z,99.99
2023-10-29T06:26:37.339Z,99.99
2023-10-29T06:27:37.286Z,99.99
2023-10-29T06:28:37.311Z,99.99
2023-10-29T06:29:37.407Z,99.99
2023-10-29T06:30:37.341Z,99.99
2023-10-29T06:31:37.378Z,99.99
2023-10-29T06:32:37.425Z,99.99
2023-10-29T06:33:37.446Z,99.99
2023-10-29T06:34:37.417Z,99.99
2023-10-29T06:35:37.436Z,99.99
2023-10-29T06:36:37.470Z,99.99
2023-10-29T06:37:37.466Z,99.99
2023-10-29T06:38:37.534Z,99.99
2023-10-29T06:39:37.510Z,99.99
2023-10-29T06:40:37.557Z,99.99
2023-10-29T06:41:37.596Z,99.99
2023-10-29T06:42:37.582Z,99.99
2023-10-29T06:43:37.585Z,99.99
2023-10-29T06:44:37.681Z,99.99
2023-10-29T06:45:37.636Z,99.99
2023-10-29T06:46:37.677Z,99.99
2023-10-29T06:47:37.741Z,99.99
2023-10-29T06:48:37.758Z,99.99
2023-10-29T06:49:37.700Z,99.99
2023-10-29T06:50:37.774Z,99.99
2023-10-29T06:51:37.730Z,99.99
2023-10-29T06:52:37.758Z,99.99
2023-10-29T06:53:37.768Z,99.99
2023-10-29T06:54:37.783Z,99.99
2023-10-29T06:55:37.807Z,99.99
2023-10-29T06:56:37.861Z,99.99
2023-10-29T06:57:37.824Z,99.99
2023-10-29T06:58:37.840Z,99.99
2023-10-29T06:59:37.871Z,99.99
2023-10-29T07:00:37.880Z,99.99
2023-10-29T07:01:37.882Z,99.99
2023-10-29T07:02:38.048Z,99.99
2023-10-29T07:03:38.043Z,99.99
2023-10-29T07:04:37.982Z,99.99
2023-10-29T07:05:37.967Z,99.99
2023-10-29T07:06:38.574Z,99.99
2023-10-29T07:07:37.994Z,99.99
2023-10-29T07:08:38.070Z,99.99
2023-10-29T07:09:38.040Z,99.99
2023-10-29T07:10:38.053Z,99.99
2023-10-29T07:11:38.114Z,99.99
2023-10-29T07:12:40.395Z,99.99
2023-10-29T07:13:38.121Z,99.99
2023-10-29T07:14:38.176Z,99.99
2023-10-29T07:15:38.144Z,99.99
2023-10-29T07:16:38.143Z,99.99
2023-10-29T07:17:38.199Z,99.99
2023-10-29T07:18:38.343Z,99.99
2023-10-29T07:19:38.191Z,99.99
2023-10-29T07:20:38.229Z,99.99
2023-10-29T07:21:38.213Z,99.99
2023-10-29T07:22:38.268Z,99.99
2023-10-29T07:23:38.359Z,99.99
2023-10-29T07:24:38.277Z,99.99
2023-10-29T07:25:38.295Z,99.99
2023-10-29T07:26:38.343Z,99.99
2023-10-29T07:27:38.352Z,99.99
2023-10-29T07:28:38.351Z,99.99
2023-10-29T07:29:38.427Z,99.99
2023-10-29T07:30:38.380Z,99.99
2023-10-29T07:31:38.431Z,99.99
2023-10-29T07:32:38.502Z,99.99
2023-10-29T07:33:38.500Z,99.99
2023-10-29T07:34:38.457Z,99.99
2023-10-29T07:35:38.490Z,99.99
2023-10-29T07:36:38.514Z,99.99
2023-10-29T07:37:38.508Z,99.99
2023-10-29T07:38:38.567Z,99.99
2023-10-29T07:39:38.531Z,99.99
2023-10-29T07:40:38.547Z,99.99
2023-10-29T07:41:38.650Z,99.99
2023-10-29T07:42:38.582Z,99.99
2023-10-29T07:43:38.603Z,99.99
2023-10-29T07:44:38.653Z,99.99
2023-10-29T07:45:38.705Z,99.99
2023-10-29T07:46:38.651Z,99.99
2023-10-29T07:47:38.762Z,99.99
2023-10-29T07:48:38.714Z,99.99
2023-10-29T07:49:38.729Z,99.99
2023-10-29T07:50:38.785Z,99.99
2023-10-29T07:51:38.744Z,99.99
2023-10-29T07:52:38.753Z,99.99
2023-10-29T07:53:38.873Z,99.99
2023-10-29T07:54:38.789Z,99.99
2023-10-29T07:55:38.815Z,99.99
2023-10-29T07:56:38.882Z,99.99
2023-10-29T07:57:38.837Z,99.99
2023-10-29T07:58:38.846Z,99.99
2023-10-29T07:59:38.896Z,99.99
2023-10-29T08:00:38.912Z,99.99
2023-10-29T08:01:38.889Z,99.99
2023-10-29T08:02:38.986Z,99.99
2023-10-29T08:03:39.021Z,99.99
2023-10-29T08:04:38.952Z,99.99
2023-10-29T08:05:39.007Z,99.99
2023-10-29T08:06:38.984Z,99.99
2023-10-29T08:07:38.986Z,99.99
2023-10-29T08:08:39.031Z,99.99
2023-10-29T08:09:39.035Z,99.99
2023-10-29T08:10:39.038Z,99.99
2023-10-29T08:11:39.086Z,99.99
2023-10-29T08:12:39.074Z,99.99
2023-10-29T08:13:39.089Z,99.99
2023-10-29T08:14:39.135Z,99.99
2023-10-29T08:15:40.445Z,99.99
2023-10-29T08:16:39.155Z,99.99
2023-10-29T08:17:39.180Z,99.99
2023-10-29T08:18:39.285Z,99.99
2023-10-29T08:19:39.201Z,99.97
2023-10-29T08:20:39.229Z,99.66
2023-10-29T08:21:39.250Z,99.51
2023-10-29T08:22:39.287Z,99.41
2023-10-29T08:23:39.320Z,99.10
2023-10-29T08:24:39.290Z,99.31
2023-10-29T08:25:39.309Z,99.37
2023-10-29T08:26:39.350Z,99.77
2023-10-29T08:27:39.355Z,99.73
2023-10-29T08:28:39.378Z,98.80
2023-10-29T08:29:39.536Z,97.99
2023-10-29T08:30:39.398Z,98.14
2023-10-29T08:31:39.478Z,97.73
2023-10-29T08:32:39.516Z,96.15
2023-10-29T08:33:39.607Z,95.39
2023-10-29T08:34:39.469Z,94.05
2023-10-29T08:35:39.500Z,93.49
2023-10-29T08:36:39.492Z,92.02
2023-10-29T08:37:39.534Z,92.59
2023-10-29T08:38:39.576Z,92.49
2023-10-29T08:39:39.547Z,89.17
2023-10-29T08:40:39.555Z,89.33
2023-10-29T08:41:39.611Z,90.15
2023-10-29T08:42:39.610Z,90.66
2023-10-29T08:43:39.610Z,90.56
2023-10-29T08:44:39.677Z,90.31
2023-10-29T08:45:42.502Z,89.59
2023-10-29T08:46:39.721Z,90.11
2023-10-29T08:47:39.769Z,90.82
2023-10-29T08:48:39.747Z,91.64
2023-10-29T08:49:39.702Z,91.33
2023-10-29T08:50:39.762Z,91.39
2023-10-29T08:51:39.767Z,90.99
2023-10-29T08:52:39.729Z,90.47
2023-10-29T08:53:39.777Z,89.97
2023-10-29T08:54:39.767Z,90.12
2023-10-29T08:55:39.823Z,89.41
2023-10-29T08:56:39.847Z,86.55
2023-10-29T08:57:39.813Z,86.55
2023-10-29T08:58:39.821Z,87.06
2023-10-29T08:59:39.857Z,86.85
2023-10-29T09:00:46.539Z,85.12
2023-10-29T09:01:39.933Z,85.18
2023-10-29T09:02:40.088Z,84.06
2023-10-29T09:03:40.037Z,84.88
2023-10-29T09:04:39.926Z,84.67
2023-10-29T09:05:40.083Z,85.04
2023-10-29T09:06:40.030Z,83.54
2023-10-29T09:07:39.957Z,81.26
2023-10-29T09:08:39.983Z,82.59
2023-10-29T09:09:40.020Z,83.81
2023-10-29T09:10:40.051Z,82.14
2023-10-29T09:11:40.048Z,84.39
2023-10-29T09:12:40.058Z,85.21
2023-10-29T09:13:40.061Z,84.59
2023-10-29T09:14:40.121Z,83.67
2023-10-29T09:15:40.096Z,84.34
2023-10-29T09:16:40.113Z,83.49
2023-10-29T09:17:40.211Z,83.49
2023-10-29T09:18:40.147Z,82.57
2023-10-29T09:19:40.164Z,83.25
2023-10-29T09:20:40.239Z,85.08
2023-10-29T09:21:40.176Z,84.37
2023-10-29T09:22:40.183Z,83.56
2023-10-29T09:23:40.301Z,84.47
2023-10-29T09:24:40.236Z,85.60
2023-10-29T09:25:40.234Z,84.78
2023-10-29T09:26:40.245Z,82.84
2023-10-29T09:27:40.265Z,86.21
2023-10-29T09:28:40.301Z,87.43
2023-10-29T09:29:40.356Z,86.71
2023-10-29T09:30:40.310Z,87.23
2023-10-29T09:31:40.382Z,86.41
2023-10-29T09:32:40.375Z,86.61
2023-10-29T09:33:40.538Z,87.32
2023-10-29T09:34:40.370Z,86.27
2023-10-29T09:35:40.429Z,86.82
2023-10-29T09:36:40.393Z,87.49
2023-10-29T09:37:40.417Z,87.69
2023-10-29T09:38:40.459Z,88.10
2023-10-29T09:39:40.452Z,87.59
2023-10-29T09:40:46.472Z,86.47
2023-10-29T09:41:40.491Z,83.11
2023-10-29T09:42:40.505Z,85.35
2023-10-29T09:43:40.519Z,85.35
2023-10-29T09:44:40.572Z,83.62
2023-10-29T09:45:40.571Z,82.46
2023-10-29T09:46:40.555Z,80.93
2023-10-29T09:47:40.680Z,80.63
2023-10-29T09:48:40.679Z,81.13
2023-10-29T09:49:40.611Z,81.95
2023-10-29T09:50:40.633Z,81.65
2023-10-29T09:51:40.641Z,82.66
2023-10-29T09:52:40.666Z,84.70
2023-10-29T09:53:40.691Z,83.07
2023-10-29T09:54:40.689Z,81.54
2023-10-29T09:55:40.702Z,81.24
2023-10-29T09:56:40.791Z,81.54
2023-10-29T09:57:40.752Z,79.81
2023-10-29T09:58:40.751Z,79.77
2023-10-29T09:59:40.787Z,80.49
2023-10-29T10:00:40.791Z,77.23
2023-10-29T10:01:55.410Z,79.06
2023-10-29T10:02:40.862Z,78.96
2023-10-29T10:03:41.010Z,77.94
2023-10-29T10:04:40.830Z,76.21
2023-10-29T10:05:40.865Z,78.96
2023-10-29T10:06:40.878Z,78.15
2023-10-29T10:07:40.880Z,78.25
2023-10-29T10:08:40.915Z,78.86
2023-10-29T10:09:40.908Z,77.44
2023-10-29T10:10:40.937Z,78.52
2023-10-29T10:11:40.963Z,76.99
2023-10-29T10:12:40.942Z,75.46
2023-10-29T10:13:40.964Z,76.68
2023-10-29T10:14:40.992Z,77.40
2023-10-29T10:15:41.017Z,76.48
2023-10-29T10:16:40.995Z,77.29
2023-10-29T10:17:41.070Z,77.70
2023-10-29T10:18:41.040Z,78.21
2023-10-29T10:19:41.048Z,75.57
2023-10-29T10:20:41.094Z,74.62
2023-10-29T10:21:41.090Z,75.23
2023-10-29T10:22:41.087Z,76.14
2023-10-29T10:23:41.135Z,75.84
2023-10-29T10:24:41.214Z,73.19
2023-10-29T10:25:41.187Z,72.69
2023-10-29T10:26:41.181Z,73.09
2023-10-29T10:27:41.172Z,73.06
2023-10-29T10:28:41.180Z,71.94
2023-10-29T10:29:41.281Z,72.14
2023-10-29T10:30:41.218Z,73.67
2023-10-29T10:31:41.305Z,73.26
2023-10-29T10:32:41.345Z,72.55
2023-10-29T10:33:41.288Z,72.96
2023-10-29T10:34:41.286Z,73.33
2023-10-29T10:35:41.313Z,74.75
2023-10-29T10:36:41.317Z,73.53
2023-10-29T10:37:41.328Z,72.72
2023-10-29T10:38:41.373Z,71.30
2023-10-29T10:39:41.352Z,74.10
2023-10-29T10:40:41.361Z,74.82
2023-10-29T10:41:41.410Z,74.71
2023-10-29T10:42:41.396Z,74.01
2023-10-29T10:43:41.438Z,74.10
2023-10-29T10:44:41.450Z,74.01
2023-10-29T10:45:41.490Z,70.15
2023-10-29T10:46:41.459Z,72.38
2023-10-29T10:47:41.527Z,71.94
2023-10-29T10:48:41.536Z,70.62
2023-10-29T10:49:41.538Z,71.64
2023-10-29T10:50:41.548Z,71.23
2023-10-29T10:51:41.548Z,70.92
2023-10-29T10:52:41.572Z,72.04
2023-10-29T10:53:42.558Z,71.03
2023-10-29T10:54:41.596Z,71.44
2023-10-29T10:55:55.452Z,73.06
2023-10-29T10:56:41.653Z,72.65
2023-10-29T10:57:41.651Z,73.16
2023-10-29T10:58:41.660Z,72.96
2023-10-29T10:59:41.680Z,71.94
2023-10-29T11:00:41.684Z,72.65
2023-10-29T11:01:41.708Z,73.33
2023-10-29T11:02:41.790Z,74.44
2023-10-29T11:03:41.837Z,74.54
2023-10-29T11:04:41.926Z,72.52
2023-10-29T11:05:41.810Z,68.79
2023-10-29T11:06:41.758Z,71.60
2023-10-29T11:07:41.797Z,73.22
2023-10-29T11:08:41.803Z,69.68
2023-10-29T11:09:41.807Z,71.70
2023-10-29T11:10:41.829Z,73.33
2023-10-29T11:11:41.893Z,73.02
2023-10-29T11:12:41.855Z,69.68
2023-10-29T11:13:41.863Z,72.01
2023-10-29T11:14:41.907Z,73.12
2023-10-29T11:15:41.893Z,71.91
2023-10-29T11:16:42.012Z,74.34
2023-10-29T11:17:42.086Z,73.83
2023-10-29T11:18:41.961Z,73.53
2023-10-29T11:19:41.948Z,74.04
2023-10-29T11:20:41.969Z,73.73
2023-10-29T11:21:41.993Z,73.22
2023-10-29T11:22:41.988Z,70.79
2023-10-29T11:23:42.060Z,72.52
2023-10-29T11:24:42.024Z,73.43
2023-10-29T11:25:42.062Z,73.02
2023-10-29T11:26:42.075Z,74.65
2023-10-29T11:27:42.116Z,75.15
2023-10-29T11:28:42.075Z,73.93
2023-10-29T11:29:42.115Z,73.73
2023-10-29T11:30:42.128Z,74.14
2023-10-29T11:31:42.163Z,73.73
2023-10-29T11:32:42.201Z,74.04
2023-10-29T11:33:42.190Z,73.83
2023-10-29T11:34:42.172Z,74.14
2023-10-29T11:35:42.241Z,74.14
2023-10-29T11:36:42.209Z,73.83
2023-10-29T11:37:42.256Z,73.22
2023-10-29T11:38:42.261Z,74.24
2023-10-29T11:39:42.307Z,74.65
2023-10-29T11:40:42.299Z,73.73
2023-10-29T11:41:44.711Z,74.30
2023-10-29T11:42:42.309Z,72.78
2023-10-29T11:43:42.330Z,72.58
2023-10-29T11:44:42.369Z,72.48
2023-10-29T11:45:42.462Z,72.89
2023-10-29T11:46:42.365Z,71.09
2023-10-29T11:47:42.448Z,70.59
2023-10-29T11:48:42.463Z,68.73
2023-10-29T11:49:42.434Z,69.44
2023-10-29T11:50:42.497Z,71.77
2023-10-29T11:51:42.453Z,70.96
2023-10-29T11:52:42.460Z,70.86
2023-10-29T11:53:42.541Z,69.44
2023-10-29T11:54:42.509Z,69.24
2023-10-29T11:55:42.512Z,69.44
2023-10-29T11:56:42.531Z,69.03
2023-10-29T11:57:42.542Z,70.15
2023-10-29T11:58:42.573Z,71.23
2023-10-29T11:59:42.602Z,71.33
2023-10-29T12:00:42.599Z,69.00
2023-10-29T12:01:42.591Z,69.51
2023-10-29T12:02:42.676Z,70.93
2023-10-29T12:03:42.819Z,72.45
2023-10-29T12:04:42.691Z,74.00
2023-10-29T12:05:42.677Z,73.90
2023-10-29T12:06:42.658Z,75.01
2023-10-29T12:07:42.698Z,75.42
2023-10-29T12:08:42.727Z,75.62
2023-10-29T12:09:42.710Z,75.62
2023-10-29T12:10:42.731Z,76.43
2023-10-29T12:11:42.773Z,76.03
2023-10-29T12:12:42.862Z,75.32
2023-10-29T12:13:42.823Z,75.62
2023-10-29T12:14:42.923Z,75.12
2023-10-29T12:15:42.806Z,75.32
2023-10-29T12:16:42.911Z,74.57
2023-10-29T12:17:42.900Z,74.88
2023-10-29T12:18:42.912Z,75.89
2023-10-29T12:19:42.885Z,75.18
2023-10-29T12:20:42.908Z,74.27
2023-10-29T12:21:42.911Z,72.81
2023-10-29T12:22:42.918Z,72.31
2023-10-29T12:23:42.940Z,72.58
2023-10-29T12:24:42.924Z,72.08
2023-10-29T12:25:42.947Z,71.67
2023-10-29T12:26:42.993Z,71.13
2023-10-29T12:27:42.994Z,73.46
2023-10-29T12:28:42.988Z,72.75
2023-10-29T12:29:43.028Z,71.33
2023-10-29T12:30:43.102Z,69.38
2023-10-29T12:31:43.050Z,67.66
2023-10-29T12:32:43.105Z,69.27
2023-10-29T12:33:43.099Z,69.27
2023-10-29T12:34:43.084Z,71.00
2023-10-29T12:35:43.120Z,70.79
2023-10-29T12:36:43.115Z,68.16
2023-10-29T12:37:43.119Z,68.97
2023-10-29T12:38:43.161Z,67.15
2023-10-29T12:39:43.151Z,67.66
2023-10-29T12:40:43.192Z,66.95
2023-10-29T12:41:43.202Z,71.50
2023-10-29T12:42:43.200Z,67.25
2023-10-29T12:43:43.210Z,67.49
2023-10-29T12:44:43.253Z,67.66
2023-10-29T12:45:43.265Z,69.38
2023-10-29T12:46:43.274Z,72.24
2023-10-29T12:47:43.330Z,67.29
2023-10-29T12:48:43.294Z,68.90
2023-10-29T12:49:43.292Z,70.83
2023-10-29T12:50:43.368Z,65.77
2023-10-29T12:51:43.334Z,69.04
2023-10-29T12:52:43.346Z,69.24